createdAt,value
2022-11-28T00:00:10.501Z,69.1429
2022-11-28T00:01:10.541Z,69.1429
2022-11-28T00:02:10.646Z,69.1429
2022-11-28T00:03:10.845Z,69.1429
2022-11-28T00:04:10.644Z,69.1429
2022-11-28T00:05:10.669Z,69.1429
2022-11-28T00:06:10.692Z,69.1429
2022-11-28T00:07:10.727Z,69.1429
2022-11-28T00:08:10.756Z,69.1429
2022-11-28T00:09:10.785Z,69.1429
2022-11-28T00:10:10.818Z,69.2143
2022-11-28T00:11:10.862Z,69.2857
2022-11-28T00:12:10.880Z,69.2857
2022-11-28T00:13:10.910Z,69.2143
2022-11-28T00:14:10.940Z,69.2857
2022-11-28T00:15:10.985Z,69.2857
2022-11-28T00:16:11.064Z,69.2857
2022-11-28T00:17:11.040Z,69.2143
2022-11-28T00:18:11.071Z,69.2143
2022-11-28T00:19:11.096Z,69.2857
2022-11-28T00:20:11.129Z,69.3571
2022-11-28T00:21:11.178Z,69.2857
2022-11-28T00:22:11.206Z,69.2143
2022-11-28T00:23:11.241Z,69.1429
2022-11-28T00:24:11.284Z,69.2143
2022-11-28T00:25:11.304Z,69.2143
2022-11-28T00:26:11.345Z,69.2143
2022-11-28T00:27:11.385Z,69.1429
2022-11-28T00:28:11.407Z,69.1429
2022-11-28T00:29:11.443Z,69.1429
2022-11-28T00:30:11.477Z,69
2022-11-28T00:31:11.506Z,69
2022-11-28T00:32:11.697Z,68.9286
2022-11-28T00:33:11.570Z,68.9286
2022-11-28T00:34:11.593Z,68.9286
2022-11-28T00:35:11.640Z,68.9286
2022-11-28T00:36:11.683Z,69
2022-11-28T00:37:11.688Z,68.9286
2022-11-28T00:38:11.733Z,68.8571
2022-11-28T00:39:11.765Z,68.9286
2022-11-28T00:40:11.786Z,68.9286
2022-11-28T00:41:11.816Z,68.9286
2022-11-28T00:42:11.841Z,68.7857
2022-11-28T00:43:11.876Z,68.8571
2022-11-28T00:44:11.906Z,69
2022-11-28T00:45:11.939Z,68.9286
2022-11-28T00:46:12.025Z,68.8571
2022-11-28T00:47:12.005Z,68.8571
2022-11-28T00:48:12.042Z,68.8571
2022-11-28T00:49:12.078Z,68.7857
2022-11-28T00:50:12.108Z,68.7857
2022-11-28T00:51:12.125Z,68.7143
2022-11-28T00:52:12.151Z,68.7143
2022-11-28T00:53:12.186Z,68.7143
2022-11-28T00:54:12.225Z,68.7857
2022-11-28T00:55:12.241Z,68.8571
2022-11-28T00:56:12.272Z,68.7857
2022-11-28T00:57:12.307Z,68.7857
2022-11-28T00:58:12.341Z,68.7857
2022-11-28T00:59:12.370Z,68.8571
2022-11-28T01:00:12.395Z,68.8571
2022-11-28T01:01:12.519Z,68.8571
2022-11-28T01:02:12.568Z,68.7857
2022-11-28T01:03:12.486Z,68.7857
2022-11-28T01:04:12.526Z,68.7143
2022-11-28T01:05:12.567Z,68.7857
2022-11-28T01:06:12.593Z,68.9286
2022-11-28T01:07:12.697Z,68.7857
2022-11-28T01:08:12.652Z,68.7143
2022-11-28T01:09:12.685Z,68.7857
2022-11-28T01:10:12.723Z,68.9286
2022-11-28T01:11:12.757Z,68.8571
2022-11-28T01:12:12.796Z,68.7857
2022-11-28T01:13:12.829Z,68.7143
2022-11-28T01:14:12.857Z,68.5714
2022-11-28T01:15:12.895Z,68.5
2022-11-28T01:16:13.042Z,68.4286
2022-11-28T01:17:12.956Z,68.4286
2022-11-28T01:18:12.988Z,68.4286
2022-11-28T01:19:13.024Z,68.5
2022-11-28T01:20:13.050Z,68.5
2022-11-28T01:21:13.078Z,68.4286
2022-11-28T01:22:13.118Z,68.4286
2022-11-28T01:23:13.142Z,68.4286
2022-11-28T01:24:13.174Z,68.4286
2022-11-28T01:25:13.212Z,68.4286
2022-11-28T01:26:13.242Z,68.5
2022-11-28T01:27:13.271Z,68.5
2022-11-28T01:28:13.304Z,68.5714
2022-11-28T01:29:13.329Z,68.5714
2022-11-28T01:30:13.361Z,68.5714
2022-11-28T01:31:13.499Z,68.6429
2022-11-28T01:32:13.417Z,68.6429
2022-11-28T01:33:13.449Z,68.6429
2022-11-28T01:34:13.481Z,68.6429
2022-11-28T01:35:13.512Z,68.7143
2022-11-28T01:36:13.539Z,68.6429
2022-11-28T01:37:13.564Z,68.6429
2022-11-28T01:38:13.598Z,68.6429
2022-11-28T01:39:13.624Z,68.5714
2022-11-28T01:40:13.665Z,68.5714
2022-11-28T01:41:13.693Z,68.4286
2022-11-28T01:42:13.720Z,68.3571
2022-11-28T01:43:13.762Z,68.3571
2022-11-28T01:44:13.797Z,68.3571
2022-11-28T01:45:13.837Z,68.3571
2022-11-28T01:46:13.955Z,68.4286
2022-11-28T01:47:13.945Z,68.4286
2022-11-28T01:48:13.930Z,68.5
2022-11-28T01:49:13.956Z,68.5
2022-11-28T01:50:13.994Z,68.5
2022-11-28T01:51:14.018Z,68.5
2022-11-28T01:52:14.051Z,68.5
2022-11-28T01:53:14.078Z,68.5
2022-11-28T01:54:14.110Z,68.4286
2022-11-28T01:55:14.150Z,68.5714
2022-11-28T01:56:14.187Z,68.5
2022-11-28T01:57:14.215Z,68.4286
2022-11-28T01:58:14.244Z,68.5
2022-11-28T01:59:14.276Z,68.4286
2022-11-28T02:00:14.295Z,68.4286
2022-11-28T02:01:14.448Z,68.3571
2022-11-28T02:02:14.368Z,68.4286
2022-11-28T02:03:14.391Z,68.5714
2022-11-28T02:04:14.433Z,68.5
2022-11-28T02:05:14.460Z,68.5
2022-11-28T02:06:14.484Z,68.5
2022-11-28T02:07:14.581Z,68.4286
2022-11-28T02:08:14.540Z,68.4286
2022-11-28T02:09:14.567Z,68.5
2022-11-28T02:10:14.628Z,68.4286
2022-11-28T02:11:14.637Z,68.5
2022-11-28T02:12:14.663Z,68.5714
2022-11-28T02:13:14.695Z,68.5714
2022-11-28T02:14:14.721Z,68.5714
2022-11-28T02:15:14.767Z,68.5
2022-11-28T02:16:14.815Z,68.5
2022-11-28T02:17:14.817Z,68.5
2022-11-28T02:18:14.851Z,68.6429
2022-11-28T02:19:14.887Z,68.6429
2022-11-28T02:20:14.925Z,68.5
2022-11-28T02:21:14.959Z,68.5
2022-11-28T02:22:14.987Z,68.6429
2022-11-28T02:23:15.016Z,68.5714
2022-11-28T02:24:15.047Z,68.5714
2022-11-28T02:25:15.069Z,68.5714
2022-11-28T02:26:15.106Z,68.6429
2022-11-28T02:27:15.144Z,68.5714
2022-11-28T02:28:15.175Z,68.6429
2022-11-28T02:29:15.199Z,68.6429
2022-11-28T02:30:15.233Z,68.6429
2022-11-28T02:31:15.336Z,68.6429
2022-11-28T02:32:15.296Z,68.6429
2022-11-28T02:33:15.325Z,68.6429
2022-11-28T02:34:15.363Z,68.5714
2022-11-28T02:35:15.406Z,68.5714
2022-11-28T02:36:15.432Z,68.5714
2022-11-28T02:37:15.462Z,68.5714
2022-11-28T02:38:15.500Z,68.4286
2022-11-28T02:39:15.517Z,68.4286
2022-11-28T02:40:15.547Z,68.4286
2022-11-28T02:41:15.592Z,68.5
2022-11-28T02:42:15.615Z,68.5
2022-11-28T02:43:15.649Z,68.5
2022-11-28T02:44:15.682Z,68.5
2022-11-28T02:45:15.709Z,68.5
2022-11-28T02:46:15.841Z,68.5714
2022-11-28T02:47:15.778Z,68.5714
2022-11-28T02:48:15.805Z,68.5
2022-11-28T02:49:15.839Z,68.4286
2022-11-28T02:50:15.860Z,68.4286
2022-11-28T02:51:15.894Z,68.4286
2022-11-28T02:52:15.933Z,68.5714
2022-11-28T02:53:15.981Z,68.5
2022-11-28T02:54:16.006Z,68.5714
2022-11-28T02:55:16.059Z,68.5714
2022-11-28T02:56:16.066Z,68.5714
2022-11-28T02:57:16.090Z,68.5714
2022-11-28T02:58:16.118Z,68.6429
2022-11-28T02:59:16.144Z,68.7143
2022-11-28T03:00:17.819Z,68.7143
2022-11-28T03:01:16.389Z,68.7143
2022-11-28T03:02:16.333Z,68.6429
2022-11-28T03:03:16.299Z,68.7143
2022-11-28T03:04:16.347Z,68.7143
2022-11-28T03:05:16.390Z,68.7143
2022-11-28T03:06:16.390Z,68.7857
2022-11-28T03:07:16.481Z,68.7143
2022-11-28T03:08:16.449Z,68.7143
2022-11-28T03:09:16.484Z,68.6429
2022-11-28T03:10:16.523Z,68.6429
2022-11-28T03:11:16.563Z,68.6429
2022-11-28T03:12:16.595Z,68.5714
2022-11-28T03:13:16.617Z,68.5714
2022-11-28T03:14:16.647Z,68.5714
2022-11-28T03:15:16.687Z,68.5714
2022-11-28T03:16:16.796Z,68.5
2022-11-28T03:17:16.744Z,68.5
2022-11-28T03:18:16.785Z,68.5714
2022-11-28T03:19:16.802Z,68.5714
2022-11-28T03:20:16.837Z,68.5714
2022-11-28T03:21:16.871Z,68.5714
2022-11-28T03:22:16.904Z,68.5714
2022-11-28T03:23:16.944Z,68.5714
2022-11-28T03:24:16.969Z,68.5
2022-11-28T03:25:16.980Z,68.5
2022-11-28T03:26:17.017Z,68.5714
2022-11-28T03:27:17.066Z,68.5714
2022-11-28T03:28:17.083Z,68.5
2022-11-28T03:29:17.119Z,68.5
2022-11-28T03:30:17.163Z,68.5
2022-11-28T03:31:17.240Z,68.4286
2022-11-28T03:32:17.214Z,68.5
2022-11-28T03:33:17.252Z,68.5
2022-11-28T03:34:17.289Z,68.5714
2022-11-28T03:35:17.307Z,68.5714
2022-11-28T03:36:17.355Z,68.5714
2022-11-28T03:37:17.384Z,68.5714
2022-11-28T03:38:17.418Z,68.5714
2022-11-28T03:39:17.443Z,68.5714
2022-11-28T03:40:17.484Z,68.5714
2022-11-28T03:41:17.516Z,68.5714
2022-11-28T03:42:17.550Z,68.5714
2022-11-28T03:43:17.574Z,68.6429
2022-11-28T03:44:17.604Z,68.6429
2022-11-28T03:45:17.640Z,68.7143
2022-11-28T03:46:17.709Z,68.7143
2022-11-28T03:47:17.692Z,68.6429
2022-11-28T03:48:17.725Z,68.7143
2022-11-28T03:49:17.752Z,68.7143
2022-11-28T03:50:17.775Z,68.7857
2022-11-28T03:51:17.817Z,68.7857
2022-11-28T03:52:17.841Z,68.7857
2022-11-28T03:53:17.869Z,68.7857
2022-11-28T03:54:17.904Z,68.7857
2022-11-28T03:55:17.974Z,68.8571
2022-11-28T03:56:17.977Z,68.9286
2022-11-28T03:57:18.013Z,68.9286
2022-11-28T03:58:18.039Z,69
2022-11-28T03:59:18.080Z,69.0714
2022-11-28T04:00:18.111Z,69.0714
2022-11-28T04:01:18.187Z,69.1429
2022-11-28T04:02:18.175Z,69.1429
2022-11-28T04:03:18.255Z,69.0714
2022-11-28T04:04:18.239Z,69.1429
2022-11-28T04:05:18.279Z,69.1429
2022-11-28T04:06:18.301Z,69.2143
2022-11-28T04:07:18.389Z,69.2143
2022-11-28T04:08:18.374Z,69.2857
2022-11-28T04:09:18.405Z,69.2857
2022-11-28T04:10:18.435Z,69.2857
2022-11-28T04:11:18.475Z,69.3571
2022-11-28T04:12:18.500Z,69.3571
2022-11-28T04:13:18.536Z,69.3571
2022-11-28T04:14:18.568Z,69.4286
2022-11-28T04:15:18.598Z,69.5
2022-11-28T04:16:18.669Z,69.4286
2022-11-28T04:17:18.671Z,69.5
2022-11-28T04:18:18.681Z,69.5
2022-11-28T04:19:18.722Z,69.5
2022-11-28T04:20:18.766Z,69.5
2022-11-28T04:21:18.804Z,69.5
2022-11-28T04:22:18.840Z,69.5
2022-11-28T04:23:18.861Z,69.5714
2022-11-28T04:24:18.891Z,69.5714
2022-11-28T04:25:18.923Z,69.5714
2022-11-28T04:26:18.955Z,69.5714
2022-11-28T04:27:18.988Z,69.5714
2022-11-28T04:28:19.025Z,69.5714
2022-11-28T04:29:19.062Z,69.5714
2022-11-28T04:30:19.105Z,69.5714
2022-11-28T04:31:19.176Z,69.5714
2022-11-28T04:32:19.179Z,69.5714
2022-11-28T04:33:19.196Z,69.6429
2022-11-28T04:34:19.230Z,69.6429
2022-11-28T04:35:19.280Z,69.5714
2022-11-28T04:36:19.312Z,69.5714
2022-11-28T04:37:19.336Z,69.5714
2022-11-28T04:38:19.386Z,69.5714
2022-11-28T04:39:19.403Z,69.5
2022-11-28T04:40:19.437Z,69.5
2022-11-28T04:41:19.474Z,69.5
2022-11-28T04:42:19.509Z,69.4286
2022-11-28T04:43:19.547Z,69.4286
2022-11-28T04:44:19.582Z,69.3571
2022-11-28T04:45:19.615Z,69.2857
2022-11-28T04:46:19.718Z,69.2143
2022-11-28T04:47:19.665Z,69.2857
2022-11-28T04:48:19.698Z,69.2143
2022-11-28T04:49:19.737Z,69.2143
2022-11-28T04:50:19.761Z,69.1429
2022-11-28T04:51:19.794Z,69.1429
2022-11-28T04:52:19.831Z,69.1429
2022-11-28T04:53:19.865Z,69
2022-11-28T04:54:19.904Z,68.9286
2022-11-28T04:55:19.940Z,69
2022-11-28T04:56:19.972Z,69
2022-11-28T04:57:20.000Z,68.9286
2022-11-28T04:58:20.027Z,68.9286
2022-11-28T04:59:20.058Z,68.8571
2022-11-28T05:00:20.100Z,68.7857
2022-11-28T05:01:20.179Z,68.7857
2022-11-28T05:02:20.179Z,68.7143
2022-11-28T05:03:20.181Z,68.7143
2022-11-28T05:04:20.214Z,68.7857
2022-11-28T05:05:20.249Z,68.7143
2022-11-28T05:06:20.280Z,68.7143
2022-11-28T05:07:20.353Z,68.7143
2022-11-28T05:08:20.348Z,68.7143
2022-11-28T05:09:20.387Z,68.6429
2022-11-28T05:10:20.416Z,68.6429
2022-11-28T05:11:20.473Z,68.5714
2022-11-28T05:12:20.495Z,68.5714
2022-11-28T05:13:20.523Z,68.5714
2022-11-28T05:14:20.555Z,68.5
2022-11-28T05:15:20.591Z,68.5
2022-11-28T05:16:20.681Z,68.4286
2022-11-28T05:17:20.653Z,68.5
2022-11-28T05:18:20.686Z,68.4286
2022-11-28T05:19:20.715Z,68.4286
2022-11-28T05:20:20.744Z,68.3571
2022-11-28T05:21:20.774Z,68.3571
2022-11-28T05:22:20.802Z,68.2857
2022-11-28T05:23:20.838Z,68.2857
2022-11-28T05:24:22.338Z,68.2857
2022-11-28T05:25:20.905Z,68.2857
2022-11-28T05:26:20.951Z,68.2857
2022-11-28T05:27:20.964Z,68.1429
2022-11-28T05:28:20.997Z,68
2022-11-28T05:29:21.026Z,68.0714
2022-11-28T05:30:21.066Z,68.1429
2022-11-28T05:31:21.205Z,68.0714
2022-11-28T05:32:21.129Z,68.0714
2022-11-28T05:33:21.158Z,68.1429
2022-11-28T05:34:21.184Z,68.0714
2022-11-28T05:35:21.216Z,68.0714
2022-11-28T05:36:21.248Z,68.0714
2022-11-28T05:37:21.280Z,67.9286
2022-11-28T05:38:21.310Z,67.8571
2022-11-28T05:39:21.339Z,67.8571
2022-11-28T05:40:21.373Z,67.7857
2022-11-28T05:41:21.408Z,67.8571
2022-11-28T05:42:21.429Z,67.7143
2022-11-28T05:43:21.466Z,67.6429
2022-11-28T05:44:25.533Z,67.6429
2022-11-28T05:45:21.571Z,67.5
2022-11-28T05:46:21.558Z,67.4286
2022-11-28T05:47:21.598Z,67.4286
2022-11-28T05:48:21.630Z,67.3571
2022-11-28T05:49:21.663Z,67.4286
2022-11-28T05:50:21.698Z,67.3571
2022-11-28T05:51:21.732Z,67.2857
2022-11-28T05:52:21.764Z,67.2857
2022-11-28T05:53:21.794Z,67.3571
2022-11-28T05:54:21.826Z,67.2857
2022-11-28T05:55:21.846Z,67.3571
2022-11-28T05:56:21.886Z,67.3571
2022-11-28T05:57:21.910Z,67.3571
2022-11-28T05:58:21.941Z,67.2857
2022-11-28T05:59:21.975Z,67.3571
2022-11-28T06:00:22.010Z,67.2857
2022-11-28T06:01:22.038Z,67.2857
2022-11-28T06:02:22.116Z,67.2857
2022-11-28T06:03:22.104Z,67.2857
2022-11-28T06:04:22.248Z,67.2857
2022-11-28T06:05:41.749Z,67.2143
2022-11-28T06:06:22.199Z,67.2143
2022-11-28T06:07:22.279Z,67.2143
2022-11-28T06:08:22.264Z,67.2857
2022-11-28T06:09:25.796Z,67.2857
2022-11-28T06:10:22.316Z,67.2857
2022-11-28T06:11:22.344Z,67.2143
2022-11-28T06:12:22.375Z,67.2143
2022-11-28T06:13:22.410Z,67.2143
2022-11-28T06:14:22.441Z,67.2143
2022-11-28T06:15:22.470Z,67.2857
2022-11-28T06:16:22.634Z,67.2857
2022-11-28T06:17:22.525Z,67.2143
2022-11-28T06:18:22.566Z,67.2143
2022-11-28T06:19:22.600Z,67.2857
2022-11-28T06:20:22.630Z,67.2857
2022-11-28T06:21:22.663Z,67.3571
2022-11-28T06:22:22.693Z,67.3571
2022-11-28T06:23:22.724Z,67.3571
2022-11-28T06:24:22.761Z,67.3571
2022-11-28T06:25:22.794Z,67.4286
2022-11-28T06:26:22.827Z,67.5
2022-11-28T06:27:22.849Z,67.5
2022-11-28T06:28:22.874Z,67.4286
2022-11-28T06:29:22.920Z,67.4286
2022-11-28T06:30:22.952Z,67.5714
2022-11-28T06:31:23.029Z,67.5714
2022-11-28T06:32:23.013Z,67.5714
2022-11-28T06:33:23.044Z,67.5714
2022-11-28T06:34:23.092Z,67.6429
2022-11-28T06:35:23.100Z,67.6429
2022-11-28T06:36:23.131Z,67.6429
2022-11-28T06:37:23.151Z,67.7143
2022-11-28T06:38:23.191Z,67.7857
2022-11-28T06:39:23.222Z,67.7143
2022-11-28T06:40:23.253Z,67.7857
2022-11-28T06:41:23.325Z,67.8571
2022-11-28T06:42:23.308Z,67.8571
2022-11-28T06:43:23.344Z,67.8571
2022-11-28T06:44:23.371Z,67.7857
2022-11-28T06:45:23.411Z,67.8571
2022-11-28T06:46:23.494Z,67.9286
2022-11-28T06:47:23.466Z,67.9286
2022-11-28T06:48:23.505Z,67.8571
2022-11-28T06:49:23.530Z,67.9286
2022-11-28T06:50:23.562Z,67.9286
2022-11-28T06:51:23.589Z,67.9286
2022-11-28T06:52:23.611Z,67.9286
2022-11-28T06:53:26.128Z,67.9286
2022-11-28T06:54:23.673Z,68
2022-11-28T06:55:23.699Z,68
2022-11-28T06:56:23.737Z,68
2022-11-28T06:57:23.761Z,67.9286
2022-11-28T06:58:23.796Z,67.9286
2022-11-28T06:59:23.820Z,67.9286
2022-11-28T07:00:23.848Z,67.9286
2022-11-28T07:01:23.932Z,67.7857
2022-11-28T07:02:23.918Z,67.7143
2022-11-28T07:03:23.936Z,67.7143
2022-11-28T07:04:23.971Z,67.7857
2022-11-28T07:05:24.002Z,67.7143
2022-11-28T07:06:24.026Z,67.7143
2022-11-28T07:07:24.087Z,67.7143
2022-11-28T07:08:24.199Z,67.7143
2022-11-28T07:09:24.124Z,67.8571
2022-11-28T07:10:24.160Z,67.7143
2022-11-28T07:11:24.180Z,67.7143
2022-11-28T07:12:24.206Z,67.7857
2022-11-28T07:13:24.232Z,67.8571
2022-11-28T07:14:24.255Z,67.8571
2022-11-28T07:15:24.285Z,67.7143
2022-11-28T07:16:24.381Z,67.7143
2022-11-28T07:17:24.348Z,67.7143
2022-11-28T07:18:24.381Z,67.7143
2022-11-28T07:19:24.418Z,67.6429
2022-11-28T07:20:24.442Z,67.6429
2022-11-28T07:21:24.480Z,67.6429
2022-11-28T07:22:24.513Z,67.6429
2022-11-28T07:23:24.537Z,67.5714
2022-11-28T07:24:24.572Z,67.6429
2022-11-28T07:25:24.616Z,67.7143
2022-11-28T07:26:24.638Z,67.5714
2022-11-28T07:27:24.661Z,67.5714
2022-11-28T07:28:24.701Z,67.5714
2022-11-28T07:29:24.740Z,67.6429
2022-11-28T07:30:24.764Z,67.5714
2022-11-28T07:31:24.828Z,67.6429
2022-11-28T07:32:24.817Z,67.5714
2022-11-28T07:33:24.847Z,67.5714
2022-11-28T07:34:24.876Z,67.5
2022-11-28T07:35:24.901Z,67.5
2022-11-28T07:36:24.927Z,67.5
2022-11-28T07:37:24.960Z,67.4286
2022-11-28T07:38:24.999Z,67.4286
2022-11-28T07:39:25.034Z,67.5
2022-11-28T07:40:25.056Z,67.4286
2022-11-28T07:41:27.005Z,67.4286
2022-11-28T07:42:25.128Z,67.5
2022-11-28T07:43:25.153Z,67.4286
2022-11-28T07:44:25.179Z,67.3571
2022-11-28T07:45:37.059Z,67.3571
2022-11-28T07:46:25.303Z,67.3571
2022-11-28T07:47:25.256Z,67.3571
2022-11-28T07:48:25.280Z,67.4286
2022-11-28T07:49:25.308Z,67.3571
2022-11-28T07:50:25.354Z,67.4286
2022-11-28T07:51:25.377Z,67.2857
2022-11-28T07:52:25.419Z,67.2857
2022-11-28T07:53:25.438Z,67.2857
2022-11-28T07:54:25.480Z,67.2143
2022-11-28T07:55:25.505Z,67.1429
2022-11-28T07:56:25.530Z,67.2143
2022-11-28T07:57:25.566Z,67.1429
2022-11-28T07:58:25.593Z,67.1429
2022-11-28T07:59:25.632Z,67.0714
2022-11-28T08:00:25.748Z,67.1429
2022-11-28T08:01:25.704Z,67.2857
2022-11-28T08:02:25.780Z,67.2857
2022-11-28T08:03:25.766Z,67.2143
2022-11-28T08:04:25.855Z,67.2143
2022-11-28T08:05:25.817Z,67.2143
2022-11-28T08:06:25.839Z,67.0714
2022-11-28T08:07:25.910Z,67
2022-11-28T08:08:25.899Z,67.1429
2022-11-28T08:09:25.924Z,67.0714
2022-11-28T08:10:25.990Z,67
2022-11-28T08:11:25.990Z,67
2022-11-28T08:12:26.014Z,66.8571
2022-11-28T08:13:26.050Z,66.8571
2022-11-28T08:14:26.075Z,66.7143
2022-11-28T08:15:26.103Z,66.6429
2022-11-28T08:16:26.163Z,66.7143
2022-11-28T08:17:26.167Z,66.7857
2022-11-28T08:18:26.202Z,66.7143
2022-11-28T08:19:29.381Z,66.7857
2022-11-28T08:20:26.276Z,66.9286
2022-11-28T08:21:26.292Z,66.9286
2022-11-28T08:22:26.326Z,66.7857
2022-11-28T08:23:26.351Z,66.8571
2022-11-28T08:24:26.380Z,66.7857
2022-11-28T08:25:26.413Z,66.8571
2022-11-28T08:26:30.437Z,67
2022-11-28T08:27:26.471Z,66.8571
2022-11-28T08:28:26.522Z,66.8571
2022-11-28T08:29:26.533Z,66.7143
2022-11-28T08:30:26.689Z,66.7143
2022-11-28T08:31:26.693Z,66.7143
2022-11-28T08:32:26.625Z,66.7857
2022-11-28T08:33:26.652Z,66.5714
2022-11-28T08:34:26.678Z,66.6429
2022-11-28T08:35:26.713Z,66.6429
2022-11-28T08:36:29.024Z,66.7143
2022-11-28T08:37:26.793Z,66.7143
2022-11-28T08:38:26.810Z,66.7143
2022-11-28T08:39:26.886Z,66.5714
2022-11-28T08:40:26.864Z,66.5714
2022-11-28T08:41:26.895Z,66.6429
2022-11-28T08:42:26.927Z,66.7143
2022-11-28T08:43:26.960Z,66.5
2022-11-28T08:44:26.989Z,66.4286
2022-11-28T08:45:27.029Z,66.2857
2022-11-28T08:46:27.098Z,66.3571
2022-11-28T08:47:27.095Z,66.3571
2022-11-28T08:48:27.134Z,66.4286
2022-11-28T08:49:27.169Z,66.5714
2022-11-28T08:50:27.194Z,66.4286
2022-11-28T08:51:27.222Z,66.3571
2022-11-28T08:52:27.247Z,66.2857
2022-11-28T08:53:27.274Z,66.2143
2022-11-28T08:54:27.322Z,66.2143
2022-11-28T08:55:32.377Z,66.1429
2022-11-28T08:56:27.376Z,66.2143
2022-11-28T08:57:27.400Z,66.2143
2022-11-28T08:58:27.441Z,66.1429
2022-11-28T08:59:27.474Z,66.2857
2022-11-28T09:00:27.503Z,66.0714
2022-11-28T09:01:27.650Z,66
2022-11-28T09:02:27.571Z,65.9286
2022-11-28T09:03:27.667Z,65.9286
2022-11-28T09:04:27.657Z,65.8571
2022-11-28T09:05:27.667Z,65.6429
2022-11-28T09:06:27.699Z,65.6429
2022-11-28T09:07:27.746Z,65.5714
2022-11-28T09:08:27.752Z,65.6429
2022-11-28T09:09:32.474Z,65.6429
2022-11-28T09:10:27.805Z,65.5
2022-11-28T09:11:27.848Z,65.4286
2022-11-28T09:12:27.883Z,65.2857
2022-11-28T09:13:27.920Z,65.0714
2022-11-28T09:14:27.944Z,65.0714
2022-11-28T09:15:27.972Z,65.1429
2022-11-28T09:16:28.111Z,64.9286
2022-11-28T09:17:28.050Z,64.8571
2022-11-28T09:18:28.081Z,64.9286
2022-11-28T09:19:28.110Z,65
2022-11-28T09:20:28.145Z,64.8571
2022-11-28T09:21:28.166Z,64.9286
2022-11-28T09:22:28.203Z,64.9286
2022-11-28T09:23:28.231Z,64.9286
2022-11-28T09:24:28.252Z,64.9286
2022-11-28T09:25:28.283Z,65
2022-11-28T09:26:28.326Z,64.7857
2022-11-28T09:27:28.357Z,64.6429
2022-11-28T09:28:28.427Z,64.7857
2022-11-28T09:29:28.409Z,64.6429
2022-11-28T09:30:28.471Z,64.7857
2022-11-28T09:31:28.542Z,64.4286
2022-11-28T09:32:28.516Z,64.2143
2022-11-28T09:33:28.542Z,64.2143
2022-11-28T09:34:28.576Z,64.0714
2022-11-28T09:35:28.609Z,64.3571
2022-11-28T09:36:28.633Z,64.2857
2022-11-28T09:37:28.669Z,64
2022-11-28T09:38:28.692Z,64
2022-11-28T09:39:43.707Z,64
2022-11-28T09:40:28.764Z,64.1429
2022-11-28T09:41:28.796Z,64.0714
2022-11-28T09:42:28.825Z,64.1429
2022-11-28T09:43:28.854Z,64
2022-11-28T09:44:28.884Z,64.0714
2022-11-28T09:45:28.912Z,64.1429
2022-11-28T09:46:29.135Z,64.5
2022-11-28T09:47:28.979Z,64.5714
2022-11-28T09:48:29.003Z,64.2857
2022-11-28T09:49:29.056Z,64.2857
2022-11-28T09:50:29.053Z,63.9286
2022-11-28T09:51:29.085Z,63.7143
2022-11-28T09:52:29.216Z,63.7857
2022-11-28T09:53:29.149Z,63.8571
2022-11-28T09:54:29.193Z,63.7143
2022-11-28T09:55:29.225Z,63.7857
2022-11-28T09:56:29.256Z,63.5
2022-11-28T09:57:29.279Z,63.5
2022-11-28T09:58:29.313Z,63.5
2022-11-28T09:59:29.333Z,63.7143
2022-11-28T10:00:29.391Z,63.6429
2022-11-28T10:01:29.390Z,63.6429
2022-11-28T10:02:29.419Z,63.7143
2022-11-28T10:03:29.508Z,63.8571
2022-11-28T10:04:29.555Z,64
2022-11-28T10:05:29.518Z,64
2022-11-28T10:06:29.560Z,64.0714
2022-11-28T10:07:29.630Z,63.7857
2022-11-28T10:08:29.606Z,63.5
2022-11-28T10:09:29.637Z,63.4286
2022-11-28T10:10:29.664Z,63.4286
2022-11-28T10:11:29.698Z,63.5714
2022-11-28T10:12:29.727Z,63.2857
2022-11-28T10:13:36.550Z,63.0714
2022-11-28T10:14:29.779Z,63.0714
2022-11-28T10:15:29.812Z,63.0714
2022-11-28T10:16:29.915Z,63.1429
2022-11-28T10:17:29.883Z,63.2857
2022-11-28T10:18:29.914Z,63.2857
2022-11-28T10:19:53.455Z,63.2857
2022-11-28T10:20:29.967Z,63.3571
2022-11-28T10:21:30.005Z,63.3571
2022-11-28T10:22:30.029Z,63.3571
2022-11-28T10:23:30.059Z,63.6429
2022-11-28T10:24:30.083Z,63.2857
2022-11-28T10:25:30.120Z,63.2857
2022-11-28T10:26:30.149Z,63.3571
2022-11-28T10:27:30.192Z,63.2143
2022-11-28T10:28:30.225Z,63.2857
2022-11-28T10:29:30.253Z,63.4286
2022-11-28T10:30:30.347Z,63.3571
2022-11-28T10:31:30.373Z,63.3571
2022-11-28T10:32:30.355Z,63.4286
2022-11-28T10:33:30.393Z,63.3571
2022-11-28T10:34:30.423Z,63.2857
2022-11-28T10:35:30.470Z,63.5
2022-11-28T10:36:30.486Z,63.5714
2022-11-28T10:37:30.518Z,63.5
2022-11-28T10:38:30.548Z,63.2143
2022-11-28T10:39:30.592Z,63.2857
2022-11-28T10:40:30.630Z,63.3571
2022-11-28T10:41:30.658Z,63.2857
2022-11-28T10:42:30.699Z,63.3571
2022-11-28T10:43:30.717Z,63.2857
2022-11-28T10:44:30.758Z,63.3571
2022-11-28T10:45:30.786Z,63.2143
2022-11-28T10:46:30.869Z,63.2857
2022-11-28T10:47:30.846Z,63.3571
2022-11-28T10:48:39.646Z,63.2857
2022-11-28T10:49:30.911Z,63.0714
2022-11-28T10:50:32.379Z,63.2143
2022-11-28T10:51:30.974Z,63.1429
2022-11-28T10:52:30.995Z,63.1429
2022-11-28T10:53:31.033Z,63.1429
2022-11-28T10:54:31.063Z,63
2022-11-28T10:55:31.100Z,62.8571
2022-11-28T10:56:31.123Z,63.0714
2022-11-28T10:57:31.168Z,63.2143
2022-11-28T10:58:31.198Z,62.9286
2022-11-28T10:59:31.219Z,62.8571
2022-11-28T11:00:31.248Z,63
2022-11-28T11:01:31.333Z,62.8571
2022-11-28T11:02:31.327Z,62.6429
2022-11-28T11:03:31.425Z,62.8571
2022-11-28T11:04:31.498Z,63
2022-11-28T11:05:31.429Z,62.9286
2022-11-28T11:06:41.375Z,63.0714
2022-11-28T11:07:31.587Z,63
2022-11-28T11:08:31.519Z,62.8571
2022-11-28T11:09:31.791Z,62.8571
2022-11-28T11:10:31.585Z,63.0714
2022-11-28T11:11:31.617Z,62.8571
2022-11-28T11:12:31.643Z,62.6429
2022-11-28T11:13:31.677Z,62.2143
2022-11-28T11:14:31.707Z,62.3571
2022-11-28T11:15:31.747Z,62.1429
2022-11-28T11:16:31.851Z,61.9286
2022-11-28T11:17:35.644Z,62.1429
2022-11-28T11:18:31.849Z,62.1429
2022-11-28T11:19:31.882Z,62.0714
2022-11-28T11:20:31.917Z,62.5
2022-11-28T11:21:32.947Z,62.7143
2022-11-28T11:22:32.018Z,62.6429
2022-11-28T11:23:37.949Z,62.5714
2022-11-28T11:24:32.033Z,62.5714
2022-11-28T11:25:32.091Z,62.5
2022-11-28T11:26:32.098Z,62.2143
2022-11-28T11:27:32.128Z,62.4286
2022-11-28T11:28:32.174Z,61.8571
2022-11-28T11:29:32.183Z,62
2022-11-28T11:30:32.367Z,62.0714
2022-11-28T11:31:32.322Z,62.2143
2022-11-28T11:32:32.269Z,62.2857
2022-11-28T11:33:32.302Z,62.1429
2022-11-28T11:34:32.331Z,62.2857
2022-11-28T11:35:32.361Z,62
2022-11-28T11:36:32.391Z,62.2857
2022-11-28T11:37:32.436Z,62.4286
2022-11-28T11:38:37.321Z,61.9286
2022-11-28T11:39:32.486Z,61.5
2022-11-28T11:40:32.519Z,61.6429
2022-11-28T11:41:32.544Z,61.3571
2022-11-28T11:42:32.579Z,61.5
2022-11-28T11:43:32.610Z,61.4286
2022-11-28T11:44:32.650Z,61.9286
2022-11-28T11:45:32.678Z,62
2022-11-28T11:46:32.764Z,61.9286
2022-11-28T11:47:32.742Z,61.5
2022-11-28T11:48:32.767Z,61.7857
2022-11-28T11:49:32.798Z,62
2022-11-28T11:50:32.823Z,62
2022-11-28T11:51:37.987Z,61.8571
2022-11-28T11:52:32.892Z,61.7143
2022-11-28T11:53:32.918Z,62.0714
2022-11-28T11:54:32.947Z,62.0714
2022-11-28T11:55:32.971Z,61.7857
2022-11-28T11:56:33.012Z,61.8571
2022-11-28T11:57:34.170Z,61.5
2022-11-28T11:58:33.071Z,61.4286
2022-11-28T11:59:33.100Z,61.6429
2022-11-28T12:00:33.139Z,61.7143
2022-11-28T12:01:33.168Z,61.6429
2022-11-28T12:02:33.319Z,61.5
2022-11-28T12:03:33.491Z,61.5
2022-11-28T12:05:52.435Z,61.6429
2022-11-28T12:06:33.324Z,61.6429
2022-11-28T12:07:33.398Z,61.6429
2022-11-28T12:08:33.395Z,61.5714
2022-11-28T12:09:33.406Z,61.6429
2022-11-28T12:10:33.443Z,61.7143
2022-11-28T12:11:33.471Z,61.5714
2022-11-28T12:12:33.510Z,61.6429
2022-11-28T12:13:33.551Z,61.7857
2022-11-28T12:14:33.572Z,61.6429
2022-11-28T12:15:33.590Z,61.6429
2022-11-28T12:16:33.735Z,62
2022-11-28T12:17:48.443Z,62
2022-11-28T12:18:34.696Z,62
2022-11-28T12:19:33.728Z,61.8571